Aviation Digital Data Service (ADDS)

Output produced by METARs form (1633 UTC 23 January 2019)
found at http://www.aviationweather.gov/metar/data/
 
Forecast for: LEBL (BARCELONA AIRPOR, ES)
Text: TAF LEBL 231100Z 2312/2412 33009KT 9999 BKN050 TX13/2312Z TN03/2406Z
Forecast period: 1200 UTC 23 January 2019 to 1200 UTC 24 January 2019
Forecast type: FROM: standard forecast or significant change
Winds: from the NNW (330 degrees) at 10 MPH (9 knots; 4.6 m/s)
Visibility: 6 or more miles 10+ km)
Ceiling: 5000 feet AGL
Clouds: broken clouds at 5000 feet AGL
Weather: no significant weather forecast for this period
Text: PROB30
Forecast period: 1200 to 1600 UTC 23 January 2019
Forecast type: TEMPORARY: The following changes expected for less than half the time period
Winds: from the SW (230 degrees) at 8 MPH (7 knots; 3.6 m/s)
Visibility: missing
Ceiling: unknown
Clouds: missing
Weather: no significant weather forecast for this period
Text: TEMPO 2312/2316 23007KT
Forecast period: 1800 UTC 23 January 2019 to 0800 UTC 24 January 2019
Forecast type: TEMPORARY: The following changes expected for less than half the time period
Winds: from the NNW (330 degrees) at 21 MPH (18 knots; 9.3 m/s)
gusting to 34 MPH (30 knots; 15.4 m/s)
Visibility: missing
Ceiling: unknown
Clouds: missing
Weather: no significant weather forecast for this period